Terminal Aerodrome Forecast
Issued by NWS

Home | Current Version | Previous Version | Text Only | Print | Product List | Glossary On
Versions: 1 2 3 4 5 6 7 8 9 10 11 12 13 14 15 16 17 18 19 20
000
FTUS45 KGJT 290527
TAFDRO
TAF
KDRO 290527Z 2906/3006 06005KT P6SM FEW110 SCT250
     FM291400 VRB03KT P6SM SCT250
     FM292000 26008KT P6SM FEW110 SCT250
     FM292300 29010KT P6SM SCT110 SCT250
     FM300200 32007KT P6SM SCT250
     FM300500 03005KT P6SM SCT200=

USA.gov is the U.S. government's official web portal to all federal, state and local government web resources and services.